sensor_id;sensor_type;location;lat;lon;timestamp;P1;durP1;ratioP1;P2;durP2;ratioP2
69569;SDS011;56781;42.292;23.146;2023-05-14T00:01:34;9.10;;;4.03;;
69569;SDS011;56781;42.292;23.146;2023-05-14T00:04:04;8.32;;;4.50;;
69569;SDS011;56781;42.292;23.146;2023-05-14T00:06:32;8.77;;;3.92;;
69569;SDS011;56781;42.292;23.146;2023-05-14T00:08:59;8.82;;;4.50;;
69569;SDS011;56781;42.292;23.146;2023-05-14T00:11:26;6.70;;;4.20;;
69569;SDS011;56781;42.292;23.146;2023-05-14T00:13:53;7.18;;;4.32;;
69569;SDS011;56781;42.292;23.146;2023-05-14T00:16:20;8.23;;;4.20;;
69569;SDS011;56781;42.292;23.146;2023-05-14T00:18:47;8.93;;;4.10;;
69569;SDS011;56781;42.292;23.146;2023-05-14T00:21:15;7.43;;;4.13;;
69569;SDS011;56781;42.292;23.146;2023-05-14T00:23:42;7.83;;;4.00;;
69569;SDS011;56781;42.292;23.146;2023-05-14T00:26:09;7.38;;;4.57;;
69569;SDS011;56781;42.292;23.146;2023-05-14T00:28:36;8.85;;;4.35;;
69569;SDS011;56781;42.292;23.146;2023-05-14T00:31:04;8.55;;;4.13;;
69569;SDS011;56781;42.292;23.146;2023-05-14T00:33:31;8.35;;;4.35;;
69569;SDS011;56781;42.292;23.146;2023-05-14T00:35:58;7.70;;;4.27;;
69569;SDS011;56781;42.292;23.146;2023-05-14T00:38:26;8.38;;;4.22;;
69569;SDS011;56781;42.292;23.146;2023-05-14T00:40:54;9.27;;;4.28;;
69569;SDS011;56781;42.292;23.146;2023-05-14T00:43:21;7.53;;;4.35;;
69569;SDS011;56781;42.292;23.146;2023-05-14T00:45:49;7.80;;;4.32;;
69569;SDS011;56781;42.292;23.146;2023-05-14T00:48:17;6.83;;;4.50;;
69569;SDS011;56781;42.292;23.146;2023-05-14T00:50:46;7.90;;;4.38;;
69569;SDS011;56781;42.292;23.146;2023-05-14T00:53:15;7.88;;;4.40;;
69569;SDS011;56781;42.292;23.146;2023-05-14T00:55:43;7.50;;;4.07;;
69569;SDS011;56781;42.292;23.146;2023-05-14T00:58:12;8.70;;;4.70;;
69569;SDS011;56781;42.292;23.146;2023-05-14T01:00:40;8.87;;;4.30;;
69569;SDS011;56781;42.292;23.146;2023-05-14T01:03:08;8.27;;;4.78;;
69569;SDS011;56781;42.292;23.146;2023-05-14T01:05:38;11.07;;;4.35;;
69569;SDS011;56781;42.292;23.146;2023-05-14T01:08:24;8.70;;;4.63;;
69569;SDS011;56781;42.292;23.146;2023-05-14T01:14:13;9.93;;;4.20;;
69569;SDS011;56781;42.292;23.146;2023-05-14T01:16:44;7.53;;;4.70;;
69569;SDS011;56781;42.292;23.146;2023-05-14T01:19:26;7.78;;;4.18;;
69569;SDS011;56781;42.292;23.146;2023-05-14T01:22:01;9.30;;;4.40;;
69569;SDS011;56781;42.292;23.146;2023-05-14T01:24:28;8.15;;;4.80;;
69569;SDS011;56781;42.292;23.146;2023-05-14T01:26:57;8.50;;;4.50;;
69569;SDS011;56781;42.292;23.146;2023-05-14T01:29:34;7.65;;;4.30;;
69569;SDS011;56781;42.292;23.146;2023-05-14T01:32:06;7.97;;;4.00;;
69569;SDS011;56781;42.292;23.146;2023-05-14T01:34:35;8.60;;;4.35;;
69569;SDS011;56781;42.292;23.146;2023-05-14T01:37:03;6.60;;;3.90;;
69569;SDS011;56781;42.292;23.146;2023-05-14T01:39:31;7.93;;;4.50;;
69569;SDS011;56781;42.292;23.146;2023-05-14T01:42:03;7.65;;;4.40;;
69569;SDS011;56781;42.292;23.146;2023-05-14T01:44:32;7.07;;;4.20;;
69569;SDS011;56781;42.292;23.146;2023-05-14T01:46:59;6.82;;;4.00;;
69569;SDS011;56781;42.292;23.146;2023-05-14T01:49:27;8.00;;;4.47;;
69569;SDS011;56781;42.292;23.146;2023-05-14T01:51:54;7.30;;;4.43;;
69569;SDS011;56781;42.292;23.146;2023-05-14T01:54:21;7.05;;;4.30;;
69569;SDS011;56781;42.292;23.146;2023-05-14T01:56:48;7.63;;;4.13;;
69569;SDS011;56781;42.292;23.146;2023-05-14T01:59:15;7.28;;;4.13;;
69569;SDS011;56781;42.292;23.146;2023-05-14T02:01:42;9.55;;;4.55;;
69569;SDS011;56781;42.292;23.146;2023-05-14T02:04:10;6.33;;;3.90;;
69569;SDS011;56781;42.292;23.146;2023-05-14T02:06:37;8.02;;;4.50;;
69569;SDS011;56781;42.292;23.146;2023-05-14T02:09:04;8.25;;;4.93;;
69569;SDS011;56781;42.292;23.146;2023-05-14T02:11:31;9.73;;;5.07;;
69569;SDS011;56781;42.292;23.146;2023-05-14T02:13:58;8.68;;;4.82;;
69569;SDS011;56781;42.292;23.146;2023-05-14T02:16:25;9.67;;;5.47;;
69569;SDS011;56781;42.292;23.146;2023-05-14T02:18:53;9.75;;;4.90;;
69569;SDS011;56781;42.292;23.146;2023-05-14T02:21:20;11.93;;;5.70;;
69569;SDS011;56781;42.292;23.146;2023-05-14T02:23:47;11.48;;;5.90;;
69569;SDS011;56781;42.292;23.146;2023-05-14T02:26:15;8.23;;;4.90;;
69569;SDS011;56781;42.292;23.146;2023-05-14T02:28:42;6.90;;;4.13;;
69569;SDS011;56781;42.292;23.146;2023-05-14T02:31:11;12.20;;;4.05;;
69569;SDS011;56781;42.292;23.146;2023-05-14T02:33:38;6.40;;;3.50;;
69569;SDS011;56781;42.292;23.146;2023-05-14T02:36:06;6.35;;;3.38;;
69569;SDS011;56781;42.292;23.146;2023-05-14T02:38:33;7.25;;;4.10;;
69569;SDS011;56781;42.292;23.146;2023-05-14T02:41:00;9.33;;;3.90;;
69569;SDS011;56781;42.292;23.146;2023-05-14T02:43:27;7.05;;;3.75;;
69569;SDS011;56781;42.292;23.146;2023-05-14T02:45:54;7.50;;;4.53;;
69569;SDS011;56781;42.292;23.146;2023-05-14T02:48:21;6.97;;;3.78;;
69569;SDS011;56781;42.292;23.146;2023-05-14T02:50:49;8.15;;;3.88;;
69569;SDS011;56781;42.292;23.146;2023-05-14T02:53:17;8.23;;;3.80;;
69569;SDS011;56781;42.292;23.146;2023-05-14T02:55:46;8.45;;;3.67;;
69569;SDS011;56781;42.292;23.146;2023-05-14T02:58:13;7.90;;;4.10;;
69569;SDS011;56781;42.292;23.146;2023-05-14T03:00:40;6.68;;;3.13;;
69569;SDS011;56781;42.292;23.146;2023-05-14T03:03:08;6.07;;;3.17;;
69569;SDS011;56781;42.292;23.146;2023-05-14T03:05:36;7.33;;;3.80;;
69569;SDS011;56781;42.292;23.146;2023-05-14T03:08:03;8.93;;;3.80;;
69569;SDS011;56781;42.292;23.146;2023-05-14T03:10:31;5.80;;;3.47;;
69569;SDS011;56781;42.292;23.146;2023-05-14T03:12:58;7.00;;;3.30;;
69569;SDS011;56781;42.292;23.146;2023-05-14T03:15:25;6.72;;;3.47;;
69569;SDS011;56781;42.292;23.146;2023-05-14T03:17:52;6.60;;;3.70;;
69569;SDS011;56781;42.292;23.146;2023-05-14T03:20:20;7.15;;;3.90;;
69569;SDS011;56781;42.292;23.146;2023-05-14T03:22:48;6.45;;;3.53;;
69569;SDS011;56781;42.292;23.146;2023-05-14T03:25:16;8.35;;;3.75;;
69569;SDS011;56781;42.292;23.146;2023-05-14T03:27:43;6.75;;;3.72;;
69569;SDS011;56781;42.292;23.146;2023-05-14T03:30:10;6.83;;;3.67;;
69569;SDS011;56781;42.292;23.146;2023-05-14T03:32:37;8.57;;;3.70;;
69569;SDS011;56781;42.292;23.146;2023-05-14T03:35:05;7.47;;;4.50;;
69569;SDS011;56781;42.292;23.146;2023-05-14T03:37:33;8.48;;;3.72;;
69569;SDS011;56781;42.292;23.146;2023-05-14T03:40:00;7.85;;;4.05;;
69569;SDS011;56781;42.292;23.146;2023-05-14T03:42:27;7.00;;;3.63;;
69569;SDS011;56781;42.292;23.146;2023-05-14T03:44:54;8.95;;;3.80;;
69569;SDS011;56781;42.292;23.146;2023-05-14T03:47:22;6.78;;;3.58;;
69569;SDS011;56781;42.292;23.146;2023-05-14T03:49:49;8.63;;;3.72;;
69569;SDS011;56781;42.292;23.146;2023-05-14T03:52:16;6.70;;;3.90;;
69569;SDS011;56781;42.292;23.146;2023-05-14T03:54:43;6.03;;;3.30;;
69569;SDS011;56781;42.292;23.146;2023-05-14T03:57:10;6.40;;;3.50;;
69569;SDS011;56781;42.292;23.146;2023-05-14T03:59:37;7.22;;;3.50;;
69569;SDS011;56781;42.292;23.146;2023-05-14T04:02:04;8.43;;;4.30;;
69569;SDS011;56781;42.292;23.146;2023-05-14T04:04:31;7.20;;;4.10;;
69569;SDS011;56781;42.292;23.146;2023-05-14T04:06:59;6.67;;;3.73;;
69569;SDS011;56781;42.292;23.146;2023-05-14T04:09:26;6.97;;;3.50;;
69569;SDS011;56781;42.292;23.146;2023-05-14T04:11:53;6.53;;;4.00;;
69569;SDS011;56781;42.292;23.146;2023-05-14T04:14:20;6.78;;;3.70;;
69569;SDS011;56781;42.292;23.146;2023-05-14T04:16:47;8.88;;;3.78;;
69569;SDS011;56781;42.292;23.146;2023-05-14T04:19:15;10.20;;;4.43;;
69569;SDS011;56781;42.292;23.146;2023-05-14T04:21:42;6.72;;;3.50;;
69569;SDS011;56781;42.292;23.146;2023-05-14T04:24:09;6.10;;;3.80;;
69569;SDS011;56781;42.292;23.146;2023-05-14T04:26:36;6.97;;;3.70;;
69569;SDS011;56781;42.292;23.146;2023-05-14T04:29:03;5.25;;;3.17;;
69569;SDS011;56781;42.292;23.146;2023-05-14T04:31:30;6.80;;;3.90;;
69569;SDS011;56781;42.292;23.146;2023-05-14T04:33:57;12.10;;;4.63;;
69569;SDS011;56781;42.292;23.146;2023-05-14T04:36:25;6.90;;;3.72;;
69569;SDS011;56781;42.292;23.146;2023-05-14T04:38:52;9.50;;;4.90;;
69569;SDS011;56781;42.292;23.146;2023-05-14T04:41:19;8.00;;;4.40;;
69569;SDS011;56781;42.292;23.146;2023-05-14T04:43:48;10.13;;;4.23;;
69569;SDS011;56781;42.292;23.146;2023-05-14T04:46:16;7.57;;;3.85;;
69569;SDS011;56781;42.292;23.146;2023-05-14T04:48:43;7.18;;;4.47;;
69569;SDS011;56781;42.292;23.146;2023-05-14T04:51:10;11.88;;;4.40;;
69569;SDS011;56781;42.292;23.146;2023-05-14T04:53:37;8.98;;;4.78;;
69569;SDS011;56781;42.292;23.146;2023-05-14T04:56:04;9.70;;;4.47;;
69569;SDS011;56781;42.292;23.146;2023-05-14T04:58:32;8.05;;;4.80;;
69569;SDS011;56781;42.292;23.146;2023-05-14T05:01:01;10.75;;;5.25;;
69569;SDS011;56781;42.292;23.146;2023-05-14T05:03:30;8.82;;;5.10;;
69569;SDS011;56781;42.292;23.146;2023-05-14T05:05:57;9.32;;;5.60;;
69569;SDS011;56781;42.292;23.146;2023-05-14T05:08:25;10.10;;;5.37;;
69569;SDS011;56781;42.292;23.146;2023-05-14T05:10:52;8.98;;;5.90;;
69569;SDS011;56781;42.292;23.146;2023-05-14T05:13:19;13.63;;;6.72;;
69569;SDS011;56781;42.292;23.146;2023-05-14T05:15:46;11.90;;;7.05;;
69569;SDS011;56781;42.292;23.146;2023-05-14T05:18:13;11.10;;;6.93;;
69569;SDS011;56781;42.292;23.146;2023-05-14T05:20:40;12.17;;;7.53;;
69569;SDS011;56781;42.292;23.146;2023-05-14T05:23:07;13.25;;;7.75;;
69569;SDS011;56781;42.292;23.146;2023-05-14T05:25:35;16.13;;;7.45;;
69569;SDS011;56781;42.292;23.146;2023-05-14T05:28:02;12.93;;;7.35;;
69569;SDS011;56781;42.292;23.146;2023-05-14T05:30:29;13.32;;;7.75;;
69569;SDS011;56781;42.292;23.146;2023-05-14T05:32:56;13.83;;;7.23;;
69569;SDS011;56781;42.292;23.146;2023-05-14T05:35:23;14.50;;;7.18;;
69569;SDS011;56781;42.292;23.146;2023-05-14T05:37:51;15.13;;;7.85;;
69569;SDS011;56781;42.292;23.146;2023-05-14T05:40:18;12.40;;;7.57;;
69569;SDS011;56781;42.292;23.146;2023-05-14T05:42:45;13.52;;;9.15;;
69569;SDS011;56781;42.292;23.146;2023-05-14T05:45:12;10.80;;;6.80;;
69569;SDS011;56781;42.292;23.146;2023-05-14T05:47:39;14.88;;;7.30;;
69569;SDS011;56781;42.292;23.146;2023-05-14T05:50:07;12.82;;;6.93;;
69569;SDS011;56781;42.292;23.146;2023-05-14T05:52:35;12.05;;;7.40;;
69569;SDS011;56781;42.292;23.146;2023-05-14T05:55:02;12.95;;;8.90;;
69569;SDS011;56781;42.292;23.146;2023-05-14T05:57:29;13.87;;;8.10;;
69569;SDS011;56781;42.292;23.146;2023-05-14T05:59:56;15.48;;;8.93;;
69569;SDS011;56781;42.292;23.146;2023-05-14T06:02:24;14.10;;;7.32;;
69569;SDS011;56781;42.292;23.146;2023-05-14T06:04:51;12.25;;;7.22;;
69569;SDS011;56781;42.292;23.146;2023-05-14T06:07:18;13.38;;;8.18;;
69569;SDS011;56781;42.292;23.146;2023-05-14T06:09:46;13.87;;;8.40;;
69569;SDS011;56781;42.292;23.146;2023-05-14T06:12:13;14.30;;;8.48;;
69569;SDS011;56781;42.292;23.146;2023-05-14T06:14:40;13.43;;;8.20;;
69569;SDS011;56781;42.292;23.146;2023-05-14T06:17:07;11.95;;;7.40;;
69569;SDS011;56781;42.292;23.146;2023-05-14T06:19:35;17.02;;;8.02;;
69569;SDS011;56781;42.292;23.146;2023-05-14T06:22:02;13.60;;;7.67;;
69569;SDS011;56781;42.292;23.146;2023-05-14T06:24:29;13.07;;;7.30;;
69569;SDS011;56781;42.292;23.146;2023-05-14T06:26:56;16.42;;;10.25;;
69569;SDS011;56781;42.292;23.146;2023-05-14T06:29:24;14.98;;;8.00;;
69569;SDS011;56781;42.292;23.146;2023-05-14T06:31:51;23.75;;;13.18;;
69569;SDS011;56781;42.292;23.146;2023-05-14T06:34:18;22.47;;;12.60;;
69569;SDS011;56781;42.292;23.146;2023-05-14T06:36:45;15.25;;;9.13;;
69569;SDS011;56781;42.292;23.146;2023-05-14T06:39:12;16.63;;;9.20;;
69569;SDS011;56781;42.292;23.146;2023-05-14T06:41:39;15.35;;;8.82;;
69569;SDS011;56781;42.292;23.146;2023-05-14T06:44:07;18.17;;;10.45;;
69569;SDS011;56781;42.292;23.146;2023-05-14T06:46:34;15.10;;;7.87;;
69569;SDS011;56781;42.292;23.146;2023-05-14T06:49:01;13.18;;;8.27;;
69569;SDS011;56781;42.292;23.146;2023-05-14T06:51:28;17.00;;;9.48;;
69569;SDS011;56781;42.292;23.146;2023-05-14T06:53:56;46.00;;;20.60;;
69569;SDS011;56781;42.292;23.146;2023-05-14T06:56:23;14.13;;;7.97;;
69569;SDS011;56781;42.292;23.146;2023-05-14T06:58:50;12.27;;;7.53;;
69569;SDS011;56781;42.292;23.146;2023-05-14T07:01:17;10.00;;;5.57;;
69569;SDS011;56781;42.292;23.146;2023-05-14T07:03:44;9.10;;;5.65;;
69569;SDS011;56781;42.292;23.146;2023-05-14T07:06:11;9.70;;;5.05;;
69569;SDS011;56781;42.292;23.146;2023-05-14T07:08:39;10.05;;;5.82;;
69569;SDS011;56781;42.292;23.146;2023-05-14T07:11:06;9.80;;;5.77;;
69569;SDS011;56781;42.292;23.146;2023-05-14T07:13:33;10.50;;;5.47;;
69569;SDS011;56781;42.292;23.146;2023-05-14T07:16:00;10.30;;;6.63;;
69569;SDS011;56781;42.292;23.146;2023-05-14T07:18:27;7.97;;;5.10;;
69569;SDS011;56781;42.292;23.146;2023-05-14T07:20:55;9.48;;;6.00;;
69569;SDS011;56781;42.292;23.146;2023-05-14T07:23:22;10.10;;;5.60;;
69569;SDS011;56781;42.292;23.146;2023-05-14T07:25:49;11.63;;;6.65;;
69569;SDS011;56781;42.292;23.146;2023-05-14T07:28:16;12.73;;;7.00;;
69569;SDS011;56781;42.292;23.146;2023-05-14T07:30:43;11.40;;;7.13;;
69569;SDS011;56781;42.292;23.146;2023-05-14T07:33:10;12.68;;;6.82;;
69569;SDS011;56781;42.292;23.146;2023-05-14T07:35:37;10.03;;;6.53;;
69569;SDS011;56781;42.292;23.146;2023-05-14T07:38:05;10.60;;;5.72;;
69569;SDS011;56781;42.292;23.146;2023-05-14T07:40:32;9.98;;;5.95;;
69569;SDS011;56781;42.292;23.146;2023-05-14T07:42:59;9.40;;;5.68;;
69569;SDS011;56781;42.292;23.146;2023-05-14T07:45:27;10.48;;;6.60;;
69569;SDS011;56781;42.292;23.146;2023-05-14T07:47:54;14.47;;;7.10;;
69569;SDS011;56781;42.292;23.146;2023-05-14T07:50:21;12.18;;;7.55;;
69569;SDS011;56781;42.292;23.146;2023-05-14T07:52:49;12.57;;;8.18;;
69569;SDS011;56781;42.292;23.146;2023-05-14T07:55:16;10.90;;;7.57;;
69569;SDS011;56781;42.292;23.146;2023-05-14T07:57:43;14.57;;;8.25;;
69569;SDS011;56781;42.292;23.146;2023-05-14T08:00:11;14.03;;;9.00;;
69569;SDS011;56781;42.292;23.146;2023-05-14T08:02:39;13.82;;;8.10;;
69569;SDS011;56781;42.292;23.146;2023-05-14T08:05:06;14.10;;;8.75;;
69569;SDS011;56781;42.292;23.146;2023-05-14T08:07:35;11.88;;;8.13;;
69569;SDS011;56781;42.292;23.146;2023-05-14T08:10:02;16.52;;;11.88;;
69569;SDS011;56781;42.292;23.146;2023-05-14T08:12:29;12.33;;;7.47;;
69569;SDS011;56781;42.292;23.146;2023-05-14T08:14:57;14.18;;;8.82;;
69569;SDS011;56781;42.292;23.146;2023-05-14T08:17:24;13.82;;;8.38;;
69569;SDS011;56781;42.292;23.146;2023-05-14T08:19:51;16.88;;;10.18;;
69569;SDS011;56781;42.292;23.146;2023-05-14T08:22:19;15.75;;;9.73;;
69569;SDS011;56781;42.292;23.146;2023-05-14T08:24:47;15.37;;;9.00;;
69569;SDS011;56781;42.292;23.146;2023-05-14T08:27:14;12.50;;;7.45;;
69569;SDS011;56781;42.292;23.146;2023-05-14T08:29:42;12.88;;;7.93;;
69569;SDS011;56781;42.292;23.146;2023-05-14T08:32:09;12.23;;;7.43;;
69569;SDS011;56781;42.292;23.146;2023-05-14T08:34:47;11.00;;;6.68;;
69569;SDS011;56781;42.292;23.146;2023-05-14T08:37:15;12.97;;;7.03;;
69569;SDS011;56781;42.292;23.146;2023-05-14T08:39:42;13.90;;;7.90;;
69569;SDS011;56781;42.292;23.146;2023-05-14T08:42:10;13.93;;;8.38;;
69569;SDS011;56781;42.292;23.146;2023-05-14T08:44:41;11.70;;;7.00;;
69569;SDS011;56781;42.292;23.146;2023-05-14T08:47:14;8.73;;;5.53;;
69569;SDS011;56781;42.292;23.146;2023-05-14T08:49:45;9.80;;;6.00;;
69569;SDS011;56781;42.292;23.146;2023-05-14T08:52:13;7.55;;;4.35;;
69569;SDS011;56781;42.292;23.146;2023-05-14T08:54:43;6.85;;;3.83;;
69569;SDS011;56781;42.292;23.146;2023-05-14T08:57:12;5.78;;;3.22;;
69569;SDS011;56781;42.292;23.146;2023-05-14T08:59:40;7.25;;;4.45;;
69569;SDS011;56781;42.292;23.146;2023-05-14T09:02:08;9.00;;;5.17;;
69569;SDS011;56781;42.292;23.146;2023-05-14T09:04:37;7.28;;;4.28;;
69569;SDS011;56781;42.292;23.146;2023-05-14T09:07:05;9.90;;;5.63;;
69569;SDS011;56781;42.292;23.146;2023-05-14T09:09:33;9.98;;;5.88;;
69569;SDS011;56781;42.292;23.146;2023-05-14T09:12:00;8.10;;;4.00;;
69569;SDS011;56781;42.292;23.146;2023-05-14T09:14:28;6.07;;;3.53;;
69569;SDS011;56781;42.292;23.146;2023-05-14T09:16:55;5.35;;;3.60;;
69569;SDS011;56781;42.292;23.146;2023-05-14T09:19:22;10.25;;;5.63;;
69569;SDS011;56781;42.292;23.146;2023-05-14T09:21:50;9.13;;;5.43;;
69569;SDS011;56781;42.292;23.146;2023-05-14T09:24:21;8.63;;;5.70;;
69569;SDS011;56781;42.292;23.146;2023-05-14T09:26:52;10.60;;;5.80;;
69569;SDS011;56781;42.292;23.146;2023-05-14T09:29:20;8.25;;;4.93;;
69569;SDS011;56781;42.292;23.146;2023-05-14T09:31:49;7.68;;;4.90;;
69569;SDS011;56781;42.292;23.146;2023-05-14T09:34:27;9.73;;;5.95;;
69569;SDS011;56781;42.292;23.146;2023-05-14T09:36:56;8.88;;;6.07;;
69569;SDS011;56781;42.292;23.146;2023-05-14T09:39:25;8.13;;;4.60;;
69569;SDS011;56781;42.292;23.146;2023-05-14T09:41:53;8.02;;;4.88;;
69569;SDS011;56781;42.292;23.146;2023-05-14T09:44:21;12.20;;;6.95;;
69569;SDS011;56781;42.292;23.146;2023-05-14T09:46:50;9.40;;;6.20;;
69569;SDS011;56781;42.292;23.146;2023-05-14T09:49:19;10.13;;;4.90;;
69569;SDS011;56781;42.292;23.146;2023-05-14T09:51:49;7.63;;;4.67;;
69569;SDS011;56781;42.292;23.146;2023-05-14T09:54:17;7.95;;;4.95;;
69569;SDS011;56781;42.292;23.146;2023-05-14T09:56:44;8.40;;;5.10;;
69569;SDS011;56781;42.292;23.146;2023-05-14T09:59:11;10.10;;;4.78;;
69569;SDS011;56781;42.292;23.146;2023-05-14T10:01:38;7.05;;;4.72;;
69569;SDS011;56781;42.292;23.146;2023-05-14T10:04:09;6.63;;;3.77;;
69569;SDS011;56781;42.292;23.146;2023-05-14T10:06:38;6.07;;;3.80;;
69569;SDS011;56781;42.292;23.146;2023-05-14T10:09:13;6.80;;;4.40;;
69569;SDS011;56781;42.292;23.146;2023-05-14T10:11:47;7.82;;;4.68;;
69569;SDS011;56781;42.292;23.146;2023-05-14T10:14:20;5.38;;;3.45;;
69569;SDS011;56781;42.292;23.146;2023-05-14T10:16:52;6.90;;;3.60;;
69569;SDS011;56781;42.292;23.146;2023-05-14T10:19:25;6.95;;;3.20;;
69569;SDS011;56781;42.292;23.146;2023-05-14T10:21:54;5.22;;;3.05;;
69569;SDS011;56781;42.292;23.146;2023-05-14T10:24:23;5.50;;;3.20;;
69569;SDS011;56781;42.292;23.146;2023-05-14T10:26:51;5.07;;;3.50;;
69569;SDS011;56781;42.292;23.146;2023-05-14T10:29:19;5.13;;;3.30;;
69569;SDS011;56781;42.292;23.146;2023-05-14T10:34:33;7.55;;;3.65;;
69569;SDS011;56781;42.292;23.146;2023-05-14T10:37:10;6.50;;;3.15;;
69569;SDS011;56781;42.292;23.146;2023-05-14T10:39:40;5.32;;;3.25;;
69569;SDS011;56781;42.292;23.146;2023-05-14T10:42:27;5.60;;;3.30;;
69569;SDS011;56781;42.292;23.146;2023-05-14T10:44:59;6.65;;;3.40;;
69569;SDS011;56781;42.292;23.146;2023-05-14T10:47:31;6.93;;;3.42;;
69569;SDS011;56781;42.292;23.146;2023-05-14T10:50:01;7.85;;;4.32;;
69569;SDS011;56781;42.292;23.146;2023-05-14T10:52:29;6.22;;;3.70;;
69569;SDS011;56781;42.292;23.146;2023-05-14T10:54:58;5.73;;;3.33;;
69569;SDS011;56781;42.292;23.146;2023-05-14T10:57:29;6.93;;;3.35;;
69569;SDS011;56781;42.292;23.146;2023-05-14T11:00:00;7.35;;;3.80;;
69569;SDS011;56781;42.292;23.146;2023-05-14T11:02:30;7.50;;;4.18;;
69569;SDS011;56781;42.292;23.146;2023-05-14T11:04:59;8.95;;;4.40;;
69569;SDS011;56781;42.292;23.146;2023-05-14T11:07:32;8.27;;;4.33;;
69569;SDS011;56781;42.292;23.146;2023-05-14T11:12:32;7.85;;;3.60;;
69569;SDS011;56781;42.292;23.146;2023-05-14T11:15:02;5.55;;;3.63;;
69569;SDS011;56781;42.292;23.146;2023-05-14T11:17:35;6.43;;;4.20;;
69569;SDS011;56781;42.292;23.146;2023-05-14T11:20:03;5.20;;;3.50;;
69569;SDS011;56781;42.292;23.146;2023-05-14T11:22:32;6.60;;;3.92;;
69569;SDS011;56781;42.292;23.146;2023-05-14T11:24:59;5.72;;;3.42;;
69569;SDS011;56781;42.292;23.146;2023-05-14T11:27:27;7.22;;;3.95;;
69569;SDS011;56781;42.292;23.146;2023-05-14T11:29:55;5.68;;;3.92;;
69569;SDS011;56781;42.292;23.146;2023-05-14T11:32:23;6.90;;;3.73;;
69569;SDS011;56781;42.292;23.146;2023-05-14T11:34:51;6.65;;;2.97;;
69569;SDS011;56781;42.292;23.146;2023-05-14T11:37:18;5.32;;;3.58;;
69569;SDS011;56781;42.292;23.146;2023-05-14T11:39:49;6.32;;;3.67;;
69569;SDS011;56781;42.292;23.146;2023-05-14T11:42:19;4.90;;;3.25;;
69569;SDS011;56781;42.292;23.146;2023-05-14T11:44:50;5.40;;;3.57;;
69569;SDS011;56781;42.292;23.146;2023-05-14T11:47:20;5.20;;;2.97;;
69569;SDS011;56781;42.292;23.146;2023-05-14T11:49:48;4.90;;;3.03;;
69569;SDS011;56781;42.292;23.146;2023-05-14T11:52:15;6.90;;;4.80;;
69569;SDS011;56781;42.292;23.146;2023-05-14T11:54:45;4.43;;;2.95;;
69569;SDS011;56781;42.292;23.146;2023-05-14T11:57:15;6.93;;;4.00;;
69569;SDS011;56781;42.292;23.146;2023-05-14T11:59:44;7.60;;;5.18;;
69569;SDS011;56781;42.292;23.146;2023-05-14T12:02:12;6.93;;;4.70;;
69569;SDS011;56781;42.292;23.146;2023-05-14T12:04:41;5.93;;;3.95;;
69569;SDS011;56781;42.292;23.146;2023-05-14T12:07:13;10.35;;;6.80;;
69569;SDS011;56781;42.292;23.146;2023-05-14T12:09:44;4.97;;;3.43;;
69569;SDS011;56781;42.292;23.146;2023-05-14T12:12:19;6.72;;;3.47;;
69569;SDS011;56781;42.292;23.146;2023-05-14T12:14:48;6.75;;;4.50;;
69569;SDS011;56781;42.292;23.146;2023-05-14T12:17:19;6.10;;;4.38;;
69569;SDS011;56781;42.292;23.146;2023-05-14T12:19:49;5.70;;;3.90;;
69569;SDS011;56781;42.292;23.146;2023-05-14T12:22:18;6.13;;;3.90;;
69569;SDS011;56781;42.292;23.146;2023-05-14T12:24:56;7.63;;;5.47;;
69569;SDS011;56781;42.292;23.146;2023-05-14T12:27:25;7.00;;;4.88;;
69569;SDS011;56781;42.292;23.146;2023-05-14T12:30:00;5.90;;;3.70;;
69569;SDS011;56781;42.292;23.146;2023-05-14T12:32:46;6.22;;;4.07;;
69569;SDS011;56781;42.292;23.146;2023-05-14T12:35:19;5.73;;;4.00;;
69569;SDS011;56781;42.292;23.146;2023-05-14T12:37:48;5.85;;;3.95;;
69569;SDS011;56781;42.292;23.146;2023-05-14T12:40:15;6.00;;;4.32;;
69569;SDS011;56781;42.292;23.146;2023-05-14T12:42:42;14.50;;;6.05;;
69569;SDS011;56781;42.292;23.146;2023-05-14T12:45:10;12.95;;;7.72;;
69569;SDS011;56781;42.292;23.146;2023-05-14T12:47:37;15.17;;;7.53;;
69569;SDS011;56781;42.292;23.146;2023-05-14T12:50:04;11.63;;;6.63;;
69569;SDS011;56781;42.292;23.146;2023-05-14T12:52:32;10.80;;;5.53;;
69569;SDS011;56781;42.292;23.146;2023-05-14T12:55:05;7.90;;;5.07;;
69569;SDS011;56781;42.292;23.146;2023-05-14T12:57:33;7.47;;;4.97;;
69569;SDS011;56781;42.292;23.146;2023-05-14T13:00:01;9.83;;;5.70;;
69569;SDS011;56781;42.292;23.146;2023-05-14T13:02:32;11.27;;;6.72;;
69569;SDS011;56781;42.292;23.146;2023-05-14T13:05:08;12.20;;;6.38;;
69569;SDS011;56781;42.292;23.146;2023-05-14T13:07:35;12.95;;;6.30;;
69569;SDS011;56781;42.292;23.146;2023-05-14T13:10:03;17.35;;;9.82;;
69569;SDS011;56781;42.292;23.146;2023-05-14T13:12:31;9.20;;;5.77;;
69569;SDS011;56781;42.292;23.146;2023-05-14T13:14:58;9.93;;;5.82;;
69569;SDS011;56781;42.292;23.146;2023-05-14T13:17:26;9.75;;;5.85;;
69569;SDS011;56781;42.292;23.146;2023-05-14T13:19:53;11.30;;;7.32;;
69569;SDS011;56781;42.292;23.146;2023-05-14T13:22:20;12.23;;;7.00;;
69569;SDS011;56781;42.292;23.146;2023-05-14T13:24:47;14.83;;;7.70;;
69569;SDS011;56781;42.292;23.146;2023-05-14T13:27:14;16.52;;;8.95;;
69569;SDS011;56781;42.292;23.146;2023-05-14T13:29:41;21.40;;;10.98;;
69569;SDS011;56781;42.292;23.146;2023-05-14T13:32:08;27.85;;;12.90;;
69569;SDS011;56781;42.292;23.146;2023-05-14T13:34:36;19.90;;;10.75;;
69569;SDS011;56781;42.292;23.146;2023-05-14T13:37:03;16.03;;;8.53;;
69569;SDS011;56781;42.292;23.146;2023-05-14T13:39:30;15.90;;;6.95;;
69569;SDS011;56781;42.292;23.146;2023-05-14T13:41:57;16.48;;;9.43;;
69569;SDS011;56781;42.292;23.146;2023-05-14T13:44:25;30.75;;;13.80;;
69569;SDS011;56781;42.292;23.146;2023-05-14T13:46:52;22.02;;;11.85;;
69569;SDS011;56781;42.292;23.146;2023-05-14T13:49:19;29.70;;;13.93;;
69569;SDS011;56781;42.292;23.146;2023-05-14T13:51:46;18.55;;;11.15;;
69569;SDS011;56781;42.292;23.146;2023-05-14T13:54:13;29.27;;;15.30;;
69569;SDS011;56781;42.292;23.146;2023-05-14T13:56:41;42.75;;;19.65;;
69569;SDS011;56781;42.292;23.146;2023-05-14T13:59:08;22.10;;;10.45;;
69569;SDS011;56781;42.292;23.146;2023-05-14T14:01:36;20.90;;;9.83;;
69569;SDS011;56781;42.292;23.146;2023-05-14T14:04:03;20.02;;;10.27;;
69569;SDS011;56781;42.292;23.146;2023-05-14T14:06:31;19.65;;;10.93;;
69569;SDS011;56781;42.292;23.146;2023-05-14T14:08:58;17.98;;;10.32;;
69569;SDS011;56781;42.292;23.146;2023-05-14T14:11:26;18.73;;;10.63;;
69569;SDS011;56781;42.292;23.146;2023-05-14T14:13:53;25.20;;;13.07;;
69569;SDS011;56781;42.292;23.146;2023-05-14T14:16:20;26.52;;;13.10;;
69569;SDS011;56781;42.292;23.146;2023-05-14T14:18:47;22.63;;;12.40;;
69569;SDS011;56781;42.292;23.146;2023-05-14T14:21:14;19.15;;;10.18;;
69569;SDS011;56781;42.292;23.146;2023-05-14T14:23:46;24.42;;;11.40;;
69569;SDS011;56781;42.292;23.146;2023-05-14T14:26:14;39.40;;;16.97;;
69569;SDS011;56781;42.292;23.146;2023-05-14T14:28:41;33.65;;;15.52;;
69569;SDS011;56781;42.292;23.146;2023-05-14T14:31:08;28.85;;;14.43;;
69569;SDS011;56781;42.292;23.146;2023-05-14T14:33:36;20.25;;;12.35;;
69569;SDS011;56781;42.292;23.146;2023-05-14T14:36:03;18.77;;;10.77;;
69569;SDS011;56781;42.292;23.146;2023-05-14T14:38:31;17.97;;;10.67;;
69569;SDS011;56781;42.292;23.146;2023-05-14T14:40:58;24.05;;;15.00;;
69569;SDS011;56781;42.292;23.146;2023-05-14T14:43:25;23.90;;;14.13;;